Emily, Minnesota
Current Conditions -  °F | °C
As of 1:53 PM on Thursday 27 Nov 2014 (Local Time) from KAIT Reporting Station
Clear Clear  
Wind Chill:   Ceiling: Unl
Heat Index:   Visibility: 10mi
Dew Point: -8°   Wind: 0mph
Humidity: 48%   Direction: NA
Pressure: 30.37"   Gusts: NA
Location:  46.73°N, 93.96°W
Report Text: KAIT 271953Z AUTO 00000KT 10SM CLR M13/M22 A3037 RMK AO2
Loading
Personal Weather Stations






























Interactive Weather Map New forecast layout! Learn more

10-Day Weather Forecast

Advertisements
Track Severe Weather on mobile